Portada
METAR-TAF:

METAR-TAF

Aeroports :

New Bedford, Massachusetts, Estats Units d'Amèrica

latitud: 41-40-31N, longitud: 070-57-25W, altitud: 24 m

Observació

L'informe es va fer fa 15 minuts, a les 03:48 UTC
Vent calma
Temperatura 17°C
Humitat 94%
Pressió 1018 hPa
Visibilitat: 12.9 km
Núvols disperses a una alçada de 400 ft

METAR: KEWB 270348Z AUTO 00000KT 8SM SCT004 17/16 A3006 RMK AO2

Hora: 00:03 (04:03 UTC)


TAF: manca

Observacions i pronòstics meteorològics de més de 4000 aeroports (METAR i TAF).

Les estacions disponibles són els punts grocs i vermells al mapa.

Posi el ratolí al punt desitjat per veure el nom de l'estació.

Feu clic per veure les observacions i els pronòstics meteorològics.

Per canviar el mapa: feu clic els botons verds amb una creu de color negre per apropar; al botó verd amb un guió per allunyar la imatge; o en les fletxes verdes per a mapes adjacents.


METAR-TAF: